createdAt,value
2022-08-28T00:00:16.129Z,20.25
2022-08-28T00:02:43.979Z,20.23
2022-08-28T00:05:24.646Z,20.22
2022-08-28T00:07:51.616Z,20.20
2022-08-28T00:10:22.576Z,20.18
2022-08-28T00:12:51.653Z,20.16
2022-08-28T00:15:32.435Z,20.16
2022-08-28T00:18:00.741Z,20.11
2022-08-28T00:20:28.567Z,20.10
2022-08-28T00:22:56.185Z,20.10
2022-08-28T00:25:26.389Z,20.10
2022-08-28T00:27:57.681Z,20.10
2022-08-28T00:30:35.584Z,20.09
2022-08-28T00:33:10.770Z,20.07
2022-08-28T00:35:38.756Z,20.04
2022-08-28T00:38:07.830Z,20.03
2022-08-28T00:40:36.041Z,19.98
2022-08-28T00:43:05.489Z,19.92
2022-08-28T00:45:39.269Z,19.91
2022-08-28T00:48:06.950Z,19.81
2022-08-28T00:50:56.826Z,19.77
2022-08-28T00:53:29.974Z,19.72
2022-08-28T00:56:02.083Z,19.72
2022-08-28T00:58:31.818Z,19.71
2022-08-28T01:01:00.286Z,19.68
2022-08-28T01:03:29.112Z,19.70
2022-08-28T01:05:56.567Z,19.68
2022-08-28T01:08:23.985Z,19.66
2022-08-28T01:10:54.893Z,19.68
2022-08-28T01:13:24.106Z,19.68
2022-08-28T01:15:52.053Z,19.67
2022-08-28T01:18:20.762Z,19.65
2022-08-28T01:21:03.664Z,19.63
2022-08-28T01:23:51.795Z,19.61
2022-08-28T01:26:19.343Z,19.61
2022-08-28T01:28:47.058Z,19.60
2022-08-28T01:31:16.934Z,19.59
2022-08-28T01:33:45.501Z,19.59
2022-08-28T01:36:40.945Z,19.59
2022-08-28T01:39:18.849Z,19.57
2022-08-28T01:41:48.567Z,19.51
2022-08-28T01:44:18.336Z,19.54
2022-08-28T01:46:46.300Z,19.53
2022-08-28T01:49:13.522Z,19.52
2022-08-28T01:51:42.058Z,19.51
2022-08-28T01:54:10.346Z,19.49
2022-08-28T01:56:39.603Z,19.49
2022-08-28T01:59:09.244Z,19.47
2022-08-28T02:01:36.844Z,19.46
2022-08-28T02:04:04.732Z,19.46
2022-08-28T02:06:32.623Z,19.43
2022-08-28T02:09:00.798Z,19.41
2022-08-28T02:11:30.852Z,19.40
2022-08-28T02:13:58.415Z,19.37
2022-08-28T02:16:27.050Z,19.37
2022-08-28T02:18:55.144Z,19.38
2022-08-28T02:21:22.442Z,19.37
2022-08-28T02:23:49.910Z,19.36
2022-08-28T02:26:17.228Z,19.36
2022-08-28T02:28:44.485Z,19.32
2022-08-28T02:31:12.230Z,19.27
2022-08-28T02:33:41.774Z,19.25
2022-08-28T02:36:10.707Z,19.20
2022-08-28T02:38:38.737Z,19.16
2022-08-28T02:41:07.307Z,19.13
2022-08-28T02:43:34.789Z,19.09
2022-08-28T02:46:02.106Z,19.05
2022-08-28T02:48:34.463Z,19.06
2022-08-28T02:51:08.292Z,19.03
2022-08-28T02:53:36.320Z,18.98
2022-08-28T02:56:06.587Z,18.91
2022-08-28T02:58:35.845Z,18.86
2022-08-28T03:01:07.186Z,18.83
2022-08-28T03:03:34.959Z,18.77
2022-08-28T03:06:04.796Z,18.72
2022-08-28T03:08:32.650Z,18.70
2022-08-28T03:11:00.694Z,18.71
2022-08-28T03:13:28.084Z,18.73
2022-08-28T03:15:56.634Z,18.75
2022-08-28T03:18:26.628Z,18.76
2022-08-28T03:20:54.448Z,18.76
2022-08-28T03:23:27.908Z,18.79
2022-08-28T03:26:00.404Z,18.74
2022-08-28T03:28:30.251Z,18.71
2022-08-28T03:30:58.027Z,18.68
2022-08-28T03:33:26.653Z,18.66
2022-08-28T03:35:53.936Z,18.64
2022-08-28T03:38:21.770Z,18.61
2022-08-28T03:40:49.240Z,18.58
2022-08-28T03:43:22.406Z,18.56
2022-08-28T03:45:58.281Z,18.53
2022-08-28T03:48:27.774Z,18.53
2022-08-28T03:50:55.338Z,18.53
2022-08-28T03:53:24.156Z,18.53
2022-08-28T03:55:51.740Z,18.50
2022-08-28T03:58:19.613Z,18.48
2022-08-28T04:00:47.125Z,18.45
2022-08-28T04:03:14.451Z,18.45
2022-08-28T04:05:42.991Z,18.40
2022-08-28T04:08:15.403Z,18.36
2022-08-28T04:10:44.372Z,18.36
2022-08-28T04:13:13.658Z,18.34
2022-08-28T04:15:41.631Z,18.29
2022-08-28T04:18:09.882Z,18.29
2022-08-28T04:20:38.949Z,18.28
2022-08-28T04:23:08.156Z,18.25
2022-08-28T04:25:35.129Z,18.27
2022-08-28T04:28:02.131Z,18.28
2022-08-28T04:30:29.245Z,18.27
2022-08-28T04:32:56.293Z,18.26
2022-08-28T04:35:23.235Z,18.28
2022-08-28T04:37:50.342Z,18.26
2022-08-28T04:40:17.466Z,18.26
2022-08-28T04:42:45.306Z,18.23
2022-08-28T04:45:12.483Z,18.22
2022-08-28T04:47:39.891Z,18.21
2022-08-28T04:50:08.050Z,18.19
2022-08-28T04:52:35.370Z,18.14
2022-08-28T04:55:02.607Z,18.08
2022-08-28T04:57:32.218Z,18.03
2022-08-28T05:00:03.336Z,17.98
2022-08-28T05:02:30.366Z,17.99
2022-08-28T05:04:57.478Z,18.00
2022-08-28T05:07:27.255Z,18.00
2022-08-28T05:09:55.006Z,18.03
2022-08-28T05:12:22.440Z,18.04
2022-08-28T05:14:49.669Z,18.06
2022-08-28T05:17:16.734Z,18.06
2022-08-28T05:19:44.940Z,18.07
2022-08-28T05:22:13.222Z,18.06
2022-08-28T05:24:40.843Z,18.05
2022-08-28T05:27:08.890Z,18.04
2022-08-28T05:29:35.924Z,17.94
2022-08-28T05:32:03.713Z,17.89
2022-08-28T05:34:31.560Z,17.85
2022-08-28T05:36:58.478Z,17.84
2022-08-28T05:39:26.715Z,17.83
2022-08-28T05:41:53.703Z,17.79
2022-08-28T05:44:21.136Z,17.79
2022-08-28T05:46:48.630Z,17.81
2022-08-28T05:49:24.507Z,17.80
2022-08-28T05:51:51.429Z,17.80
2022-08-28T05:54:18.446Z,17.80
2022-08-28T05:56:46.502Z,17.85
2022-08-28T05:59:16.078Z,17.86
2022-08-28T06:01:46.989Z,17.87
2022-08-28T06:04:18.069Z,17.91
2022-08-28T06:06:45.660Z,17.87
2022-08-28T06:09:29.442Z,17.86
2022-08-28T06:12:00.120Z,17.82
2022-08-28T06:14:27.941Z,17.83
2022-08-28T06:16:56.838Z,17.82
2022-08-28T06:19:30.127Z,17.85
2022-08-28T06:21:59.247Z,17.86
2022-08-28T06:24:27.720Z,17.87
2022-08-28T06:26:56.556Z,17.92
2022-08-28T06:29:44.997Z,17.94
2022-08-28T06:32:11.955Z,17.96
2022-08-28T06:34:39.008Z,18.00
2022-08-28T06:37:05.949Z,18.03
2022-08-28T06:39:32.753Z,18.05
2022-08-28T06:42:00.184Z,18.06
2022-08-28T06:44:28.537Z,18.08
2022-08-28T06:46:55.787Z,18.13
2022-08-28T06:49:28.536Z,18.15
2022-08-28T06:51:56.393Z,18.19
2022-08-28T06:54:23.657Z,18.20
2022-08-28T06:56:52.406Z,18.27
2022-08-28T06:59:28.073Z,18.28
2022-08-28T07:01:58.533Z,18.34
2022-08-28T07:04:25.448Z,18.41
2022-08-28T07:06:54.679Z,18.46
2022-08-28T07:09:27.886Z,18.49
2022-08-28T07:11:54.699Z,18.48
2022-08-28T07:14:21.791Z,18.45
2022-08-28T07:16:48.538Z,18.45
2022-08-28T07:19:15.644Z,18.49
2022-08-28T07:21:45.441Z,18.47
2022-08-28T07:24:14.930Z,18.46
2022-08-28T07:26:43.759Z,18.48
2022-08-28T07:29:11.711Z,18.51
2022-08-28T07:31:46.180Z,18.57
2022-08-28T07:34:14.253Z,18.63
2022-08-28T07:36:42.165Z,18.66
2022-08-28T07:39:10.766Z,18.68
2022-08-28T07:41:40.294Z,18.66
2022-08-28T07:44:27.211Z,18.70
2022-08-28T07:46:59.425Z,18.71
2022-08-28T07:49:28.245Z,18.72
2022-08-28T07:51:55.128Z,18.74
2022-08-28T07:54:23.115Z,18.79
2022-08-28T07:56:50.683Z,18.85
2022-08-28T07:59:26.349Z,19.02
2022-08-28T08:01:53.478Z,19.11
2022-08-28T08:04:21.849Z,19.17
2022-08-28T08:06:51.368Z,19.28
2022-08-28T08:09:28.661Z,19.29
2022-08-28T08:11:56.802Z,19.33
2022-08-28T08:14:25.128Z,19.35
2022-08-28T08:16:52.753Z,19.37
2022-08-28T08:19:27.094Z,19.47
2022-08-28T08:21:55.243Z,19.55
2022-08-28T08:24:26.626Z,19.58
2022-08-28T08:26:59.865Z,19.66
2022-08-28T08:29:35.662Z,19.69
2022-08-28T08:32:08.099Z,19.73
2022-08-28T08:34:38.803Z,19.80
2022-08-28T08:37:06.650Z,19.81
2022-08-28T08:39:35.647Z,19.84
2022-08-28T08:42:05.302Z,19.93
2022-08-28T08:44:43.720Z,20.01
2022-08-28T08:47:37.953Z,20.08
2022-08-28T08:50:11.474Z,20.07
2022-08-28T08:53:06.832Z,20.07
2022-08-28T08:55:36.038Z,20.17
2022-08-28T08:58:02.863Z,20.20
2022-08-28T09:00:34.396Z,20.22
2022-08-28T09:03:09.042Z,20.23
2022-08-28T09:05:48.412Z,20.31
2022-08-28T09:08:42.685Z,20.37
2022-08-28T09:11:46.011Z,20.42
2022-08-28T09:14:34.894Z,20.45
2022-08-28T09:17:02.693Z,20.47
2022-08-28T09:19:29.836Z,20.49
2022-08-28T09:21:57.068Z,20.58
2022-08-28T09:24:32.928Z,20.67
2022-08-28T09:27:08.185Z,20.74
2022-08-28T09:29:47.277Z,20.76
2022-08-28T09:32:25.817Z,20.84
2022-08-28T09:35:25.299Z,20.86
2022-08-28T09:37:52.647Z,20.87
2022-08-28T09:40:47.588Z,20.85
2022-08-28T09:43:29.143Z,20.88
2022-08-28T09:46:22.313Z,20.95
2022-08-28T09:48:52.612Z,20.99
2022-08-28T09:51:22.673Z,21.03
2022-08-28T09:53:52.455Z,21.08
2022-08-28T09:56:27.742Z,21.11
2022-08-28T09:58:58.001Z,21.16
2022-08-28T10:01:46.640Z,21.26
2022-08-28T10:04:28.757Z,21.37
2022-08-28T10:07:02.688Z,21.45
2022-08-28T10:09:33.885Z,21.50
2022-08-28T10:12:15.319Z,21.53
2022-08-28T10:15:00.315Z,21.55
2022-08-28T10:17:52.121Z,21.63
2022-08-28T10:20:24.890Z,21.56
2022-08-28T10:23:00.915Z,21.52
2022-08-28T10:25:46.631Z,21.47
2022-08-28T10:28:39.949Z,21.44
2022-08-28T10:31:31.808Z,21.48
2022-08-28T10:34:17.222Z,21.59
2022-08-28T10:36:50.658Z,21.68
2022-08-28T10:39:47.810Z,21.70
2022-08-28T10:42:22.937Z,21.67
2022-08-28T10:45:07.206Z,21.71
2022-08-28T10:47:38.093Z,21.78
2022-08-28T10:50:17.800Z,21.80
2022-08-28T10:52:51.581Z,21.81
2022-08-28T10:55:36.660Z,21.81
2022-08-28T10:58:24.193Z,21.83
2022-08-28T11:01:01.388Z,21.84
2022-08-28T11:03:34.850Z,21.87
2022-08-28T11:06:11.839Z,21.87
2022-08-28T11:08:40.298Z,21.87
2022-08-28T11:11:13.983Z,21.90
2022-08-28T11:13:52.689Z,21.89
2022-08-28T11:16:35.837Z,21.91
2022-08-28T11:19:11.618Z,21.92
2022-08-28T11:21:53.796Z,21.89
2022-08-28T11:24:38.887Z,21.93
2022-08-28T11:27:35.165Z,21.94
2022-08-28T11:30:15.391Z,22.03
2022-08-28T11:33:28.531Z,22.04
2022-08-28T11:35:55.496Z,22.04
2022-08-28T11:38:45.785Z,22.03
2022-08-28T11:41:15.496Z,22.06
2022-08-28T11:43:51.049Z,22.07
2022-08-28T11:46:34.095Z,22.07
2022-08-28T11:49:04.082Z,22.08
2022-08-28T11:51:46.130Z,22.16
2022-08-28T11:54:24.265Z,22.15
2022-08-28T11:57:04.218Z,22.14
2022-08-28T11:59:40.165Z,22.13
2022-08-28T12:02:38.066Z,22.13
2022-08-28T12:05:31.649Z,22.09
2022-08-28T12:08:01.071Z,22.14
2022-08-28T12:10:27.967Z,22.18
2022-08-28T12:13:03.373Z,22.18
2022-08-28T12:15:30.109Z,22.23
2022-08-28T12:18:02.513Z,22.28
2022-08-28T12:20:47.921Z,22.32
2022-08-28T12:23:23.836Z,22.40
2022-08-28T12:25:59.211Z,22.45
2022-08-28T12:28:32.003Z,22.50
2022-08-28T12:31:01.794Z,22.58
2022-08-28T12:33:49.660Z,22.63
2022-08-28T12:36:19.350Z,22.66
2022-08-28T12:38:52.286Z,22.67
2022-08-28T12:41:20.956Z,22.68
2022-08-28T12:43:51.171Z,22.72
2022-08-28T12:46:20.882Z,22.81
2022-08-28T12:48:58.982Z,22.87
2022-08-28T12:51:29.157Z,22.90
2022-08-28T12:53:58.938Z,22.96
2022-08-28T12:56:30.264Z,23.12
2022-08-28T12:59:22.082Z,23.12
2022-08-28T13:01:54.801Z,23.12
2022-08-28T13:04:36.005Z,23.10
2022-08-28T13:07:30.874Z,23.10
2022-08-28T13:10:01.807Z,23.11
2022-08-28T13:12:54.884Z,23.06
2022-08-28T13:15:51.910Z,23.06
2022-08-28T13:18:46.694Z,23.10
2022-08-28T13:21:13.543Z,23.13
2022-08-28T13:23:40.663Z,23.08
2022-08-28T13:26:08.413Z,23.00
2022-08-28T13:28:43.531Z,22.99
2022-08-28T13:31:33.215Z,22.98
2022-08-28T13:34:03.291Z,22.99
2022-08-28T13:36:41.531Z,22.98
2022-08-28T13:39:09.881Z,22.95
2022-08-28T13:41:37.824Z,22.94
2022-08-28T13:44:05.626Z,22.92
2022-08-28T13:46:32.947Z,22.91
2022-08-28T13:49:00.308Z,22.92
2022-08-28T13:51:29.219Z,22.98
2022-08-28T13:53:56.935Z,23.00
2022-08-28T13:56:27.694Z,23.06
2022-08-28T13:58:57.864Z,23.13
2022-08-28T14:01:48.864Z,23.14
2022-08-28T14:04:15.995Z,23.16
2022-08-28T14:06:44.298Z,23.14
2022-08-28T14:09:17.601Z,23.13
2022-08-28T14:11:45.930Z,23.14
2022-08-28T14:14:12.916Z,23.18
2022-08-28T14:16:40.650Z,23.21
2022-08-28T14:19:08.172Z,23.27
2022-08-28T14:21:39.427Z,23.29
2022-08-28T14:24:06.999Z,23.29
2022-08-28T14:26:34.328Z,23.31
2022-08-28T14:29:02.732Z,23.34
2022-08-28T14:31:30.635Z,23.32
2022-08-28T14:33:58.466Z,23.34
2022-08-28T14:36:30.266Z,23.38
2022-08-28T14:39:02.806Z,23.42
2022-08-28T14:41:32.561Z,23.47
2022-08-28T14:43:59.610Z,23.51
2022-08-28T14:46:36.022Z,23.51
2022-08-28T14:49:09.241Z,23.48
2022-08-28T14:51:39.223Z,23.46
2022-08-28T14:54:07.788Z,23.42
2022-08-28T14:56:36.218Z,23.44
2022-08-28T14:59:06.396Z,23.43
2022-08-28T15:01:39.680Z,23.46
2022-08-28T15:04:11.277Z,23.48
2022-08-28T15:06:38.814Z,23.52
2022-08-28T15:09:05.871Z,23.53
2022-08-28T15:11:32.787Z,23.52
2022-08-28T15:13:59.701Z,23.50
2022-08-28T15:16:32.718Z,23.47
2022-08-28T15:19:00.037Z,23.44
2022-08-28T15:21:33.123Z,23.38
2022-08-28T15:24:02.624Z,23.34
2022-08-28T15:26:31.088Z,23.32
2022-08-28T15:29:02.548Z,23.30
2022-08-28T15:31:35.546Z,23.25
2022-08-28T15:34:13.510Z,23.22
2022-08-28T15:36:43.739Z,23.18
2022-08-28T15:39:33.612Z,23.17
2022-08-28T15:42:00.993Z,23.17
2022-08-28T15:44:28.455Z,23.19
2022-08-28T15:47:05.082Z,23.20
2022-08-28T15:49:43.346Z,23.17
2022-08-28T15:52:12.916Z,23.16
2022-08-28T15:54:39.772Z,23.17
2022-08-28T15:57:06.660Z,23.15
2022-08-28T15:59:38.021Z,23.14
2022-08-28T16:02:16.315Z,23.14
2022-08-28T16:04:43.262Z,23.14
2022-08-28T16:07:10.043Z,23.13
2022-08-28T16:09:37.060Z,23.13
2022-08-28T16:12:04.310Z,23.12
2022-08-28T16:14:34.494Z,23.10
2022-08-28T16:17:05.780Z,23.06
2022-08-28T16:19:40.805Z,23.03
2022-08-28T16:22:09.269Z,23.00
2022-08-28T16:24:36.386Z,22.96
2022-08-28T16:27:03.375Z,22.96
2022-08-28T16:29:30.692Z,22.96
2022-08-28T16:31:57.699Z,22.95
2022-08-28T16:34:30.763Z,22.94
2022-08-28T16:36:58.687Z,22.89
2022-08-28T16:39:29.522Z,22.90
2022-08-28T16:41:56.417Z,22.88
2022-08-28T16:44:28.190Z,22.87
2022-08-28T16:46:55.719Z,22.87
2022-08-28T16:49:29.745Z,22.87
2022-08-28T16:51:56.645Z,22.85
2022-08-28T16:54:23.866Z,22.85
2022-08-28T16:56:51.006Z,22.85
2022-08-28T16:59:29.891Z,22.85
2022-08-28T17:01:56.717Z,22.85
2022-08-28T17:04:24.368Z,22.83
2022-08-28T17:06:51.279Z,22.83
2022-08-28T17:09:27.581Z,22.83
2022-08-28T17:11:54.515Z,22.79
2022-08-28T17:14:22.256Z,22.76
2022-08-28T17:16:49.715Z,22.75
2022-08-28T17:19:21.951Z,22.73
2022-08-28T17:22:07.759Z,22.70
2022-08-28T17:24:34.618Z,22.68
2022-08-28T17:27:05.475Z,22.61
2022-08-28T17:29:34.823Z,22.62
2022-08-28T17:32:02.087Z,22.60
2022-08-28T17:34:30.595Z,22.58
2022-08-28T17:36:57.625Z,22.55
2022-08-28T17:39:28.679Z,22.53
2022-08-28T17:41:55.628Z,22.52
2022-08-28T17:44:23.573Z,22.48
2022-08-28T17:46:51.958Z,22.45
2022-08-28T17:49:27.900Z,22.45
2022-08-28T17:51:54.761Z,22.44
2022-08-28T17:54:24.482Z,22.43
2022-08-28T17:56:53.262Z,22.41
2022-08-28T17:59:28.342Z,22.39
2022-08-28T18:01:55.639Z,22.41
2022-08-28T18:04:24.527Z,22.41
2022-08-28T18:06:54.611Z,22.39
2022-08-28T18:09:28.255Z,22.36
2022-08-28T18:11:55.095Z,22.32
2022-08-28T18:14:22.043Z,22.30
2022-08-28T18:16:49.186Z,22.30
2022-08-28T18:19:16.949Z,22.29
2022-08-28T18:21:44.170Z,22.26
2022-08-28T18:24:13.210Z,22.25
2022-08-28T18:26:41.703Z,22.23
2022-08-28T18:29:08.577Z,22.19
2022-08-28T18:31:35.547Z,22.16
2022-08-28T18:34:02.586Z,22.13
2022-08-28T18:36:29.822Z,22.12
2022-08-28T18:38:57.155Z,22.08
2022-08-28T18:41:41.636Z,22.07
2022-08-28T18:44:13.291Z,22.05
2022-08-28T18:46:40.916Z,22.02
2022-08-28T18:49:08.254Z,21.97
2022-08-28T18:51:35.451Z,21.96
2022-08-28T18:54:04.925Z,21.95
2022-08-28T18:56:33.711Z,21.92
2022-08-28T18:59:03.684Z,21.89
2022-08-28T19:01:30.926Z,21.85
2022-08-28T19:03:58.030Z,21.83
2022-08-28T19:06:25.265Z,21.77
2022-08-28T19:08:52.564Z,21.76
2022-08-28T19:11:19.881Z,21.76
2022-08-28T19:13:47.082Z,21.76
2022-08-28T19:16:20.930Z,21.75
2022-08-28T19:18:51.406Z,21.74
2022-08-28T19:21:20.683Z,21.75
2022-08-28T19:23:56.092Z,21.72
2022-08-28T19:26:24.951Z,21.71
2022-08-28T19:28:58.682Z,21.72
2022-08-28T19:31:26.502Z,21.69
2022-08-28T19:33:53.990Z,21.68
2022-08-28T19:36:21.846Z,21.66
2022-08-28T19:38:49.241Z,21.61
2022-08-28T19:41:16.691Z,21.57
2022-08-28T19:43:44.408Z,21.55
2022-08-28T19:46:19.851Z,21.54
2022-08-28T19:48:52.140Z,21.51
2022-08-28T19:51:23.169Z,21.51
2022-08-28T19:53:58.366Z,21.46
2022-08-28T19:56:33.760Z,21.43
2022-08-28T19:59:04.404Z,21.41
2022-08-28T20:01:35.609Z,21.39
2022-08-28T20:04:03.112Z,21.39
2022-08-28T20:06:35.001Z,21.35
2022-08-28T20:09:03.080Z,21.33
2022-08-28T20:11:30.999Z,21.32
2022-08-28T20:14:04.552Z,21.31
2022-08-28T20:16:35.750Z,21.28
2022-08-28T20:19:04.310Z,21.25
2022-08-28T20:21:37.623Z,21.24
2022-08-28T20:24:11.052Z,21.21
2022-08-28T20:26:38.165Z,21.18
2022-08-28T20:29:07.670Z,21.14
2022-08-28T20:31:35.596Z,21.11
2022-08-28T20:34:02.994Z,21.06
2022-08-28T20:36:30.194Z,21.03
2022-08-28T20:38:57.489Z,21.03
2022-08-28T20:41:24.898Z,21.01
2022-08-28T20:43:52.096Z,20.99
2022-08-28T20:46:20.220Z,20.96
2022-08-28T20:48:47.560Z,20.93
2022-08-28T20:51:14.786Z,20.90
2022-08-28T20:53:42.131Z,20.88
2022-08-28T20:56:10.731Z,20.88
2022-08-28T20:58:38.430Z,20.85
2022-08-28T21:01:06.041Z,20.86
2022-08-28T21:03:33.342Z,20.87
2022-08-28T21:06:00.427Z,20.83
2022-08-28T21:08:27.536Z,20.78
2022-08-28T21:10:54.693Z,20.79
2022-08-28T21:13:22.056Z,20.80
2022-08-28T21:15:49.194Z,20.79
2022-08-28T21:18:16.605Z,20.78
2022-08-28T21:20:44.352Z,20.76
2022-08-28T21:23:13.649Z,20.75
2022-08-28T21:25:41.844Z,20.74
2022-08-28T21:28:09.296Z,20.71
2022-08-28T21:30:36.445Z,20.70
2022-08-28T21:33:03.901Z,20.70
2022-08-28T21:35:31.161Z,20.68
2022-08-28T21:37:58.193Z,20.66
2022-08-28T21:40:25.470Z,20.62
2022-08-28T21:42:52.511Z,20.63
2022-08-28T21:45:20.346Z,20.62
2022-08-28T21:47:47.881Z,20.60
2022-08-28T21:50:16.907Z,20.58
2022-08-28T21:52:44.101Z,20.57
2022-08-28T21:55:14.203Z,20.57
2022-08-28T21:57:41.494Z,20.58
2022-08-28T22:00:13.395Z,20.56
2022-08-28T22:02:40.666Z,20.53
2022-08-28T22:05:08.149Z,20.49
2022-08-28T22:07:36.425Z,20.51
2022-08-28T22:10:04.978Z,20.49
2022-08-28T22:12:32.833Z,20.48
2022-08-28T22:15:01.084Z,20.46
2022-08-28T22:17:28.238Z,20.46
2022-08-28T22:19:55.512Z,20.45
2022-08-28T22:22:41.001Z,20.44
2022-08-28T22:25:08.589Z,20.42
2022-08-28T22:27:35.552Z,20.39
2022-08-28T22:30:03.265Z,20.37
2022-08-28T22:32:30.579Z,20.36
2022-08-28T22:34:57.796Z,20.39
2022-08-28T22:37:26.116Z,20.35
2022-08-28T22:39:53.550Z,20.32
2022-08-28T22:42:20.799Z,20.30
2022-08-28T22:44:47.936Z,20.30
2022-08-28T22:47:15.322Z,20.27
2022-08-28T22:49:46.089Z,20.23
2022-08-28T22:52:13.752Z,20.21
2022-08-28T22:54:40.800Z,20.20
2022-08-28T22:57:08.134Z,20.18
2022-08-28T22:59:36.614Z,20.19
2022-08-28T23:02:04.776Z,20.20
2022-08-28T23:04:32.227Z,20.20
2022-08-28T23:06:59.360Z,20.19
2022-08-28T23:09:32.161Z,20.20
2022-08-28T23:12:08.082Z,20.17
2022-08-28T23:14:35.260Z,20.16
2022-08-28T23:17:02.389Z,20.13
2022-08-28T23:19:36.906Z,20.10
2022-08-28T23:22:04.092Z,20.06
2022-08-28T23:24:32.097Z,20.07
2022-08-28T23:27:13.933Z,20.05
2022-08-28T23:29:46.362Z,20.06
2022-08-28T23:32:20.337Z,20.03
2022-08-28T23:34:47.445Z,20.02
2022-08-28T23:37:14.588Z,20.00
2022-08-28T23:39:42.184Z,19.98
2022-08-28T23:42:09.603Z,19.95
2022-08-28T23:44:36.803Z,19.96
2022-08-28T23:47:04.525Z,19.97
2022-08-28T23:49:42.650Z,19.97
2022-08-28T23:52:10.198Z,19.98
2022-08-28T23:54:37.436Z,19.97
2022-08-28T23:57:05.329Z,19.96
2022-08-28T23:59:40.097Z,19.92
